FD43 weather

CLOSED Oaks Helistop
Venice, Florida, United States

Public forecast

Using degrees Fahrenheit for public forecast. Weather courtesy of forecast.io.

Closest aviation weather report (METAR) to Oaks Helistop

Closest report is Venice Municipal Airport, 8.5 nm (15.7 km) SSE. Retrieved 2019/12/06 17:35 UTC (12 minutes ago):

KVNC 061735Z AUTO 27006KT 10SM CLR 23/10 A3017 RMK AO2

Closest aviation forecast (TAF) to Oaks Helistop

Closest forecast is Sarasota Bradenton International Airport, 11.9 nm (22.0 km) NNW. Retrieved 2019/12/06 12:24 UTC (5 hours ago):

TAF KSRQ 061122Z 0612/0712 09004KT P6SM BKN250 FM061800 21007KT P6SM SCT250 FM062100 27008KT P6SM FEW250 FM070000 VRB03KT P6SM SKC